sensor_id;sensor_type;location;lat;lon;timestamp;temperature;humidity
18597;DHT22;9428;50.950;6.912;2024-03-02T00:02:28;8.90;99.90
18597;DHT22;9428;50.950;6.912;2024-03-02T00:05:16;8.90;99.90
18597;DHT22;9428;50.950;6.912;2024-03-02T00:08:05;8.90;99.90
18597;DHT22;9428;50.950;6.912;2024-03-02T00:10:58;9.00;99.90
18597;DHT22;9428;50.950;6.912;2024-03-02T00:13:45;9.00;99.90
18597;DHT22;9428;50.950;6.912;2024-03-02T00:16:34;9.00;99.90
18597;DHT22;9428;50.950;6.912;2024-03-02T00:19:23;9.00;99.90
18597;DHT22;9428;50.950;6.912;2024-03-02T00:22:11;9.00;99.90
18597;DHT22;9428;50.950;6.912;2024-03-02T00:24:58;9.10;99.90
18597;DHT22;9428;50.950;6.912;2024-03-02T00:27:47;9.00;99.90
18597;DHT22;9428;50.950;6.912;2024-03-02T00:30:51;9.10;99.90
18597;DHT22;9428;50.950;6.912;2024-03-02T00:33:41;9.10;99.90
18597;DHT22;9428;50.950;6.912;2024-03-02T00:36:29;9.20;99.90
18597;DHT22;9428;50.950;6.912;2024-03-02T00:39:16;9.10;99.90
18597;DHT22;9428;50.950;6.912;2024-03-02T00:42:05;9.10;99.90
18597;DHT22;9428;50.950;6.912;2024-03-02T00:44:53;9.20;99.90
18597;DHT22;9428;50.950;6.912;2024-03-02T00:47:40;9.20;99.90
18597;DHT22;9428;50.950;6.912;2024-03-02T00:50:29;9.20;99.90
18597;DHT22;9428;50.950;6.912;2024-03-02T00:53:17;9.20;99.90
18597;DHT22;9428;50.950;6.912;2024-03-02T00:56:10;9.10;99.90
18597;DHT22;9428;50.950;6.912;2024-03-02T00:58:58;9.20;99.90
18597;DHT22;9428;50.950;6.912;2024-03-02T01:01:54;9.20;99.90
18597;DHT22;9428;50.950;6.912;2024-03-02T01:04:41;9.20;99.90
18597;DHT22;9428;50.950;6.912;2024-03-02T01:07:30;9.00;99.90
18597;DHT22;9428;50.950;6.912;2024-03-02T01:10:17;9.20;99.90
18597;DHT22;9428;50.950;6.912;2024-03-02T01:13:08;9.10;99.90
18597;DHT22;9428;50.950;6.912;2024-03-02T01:15:57;9.10;99.90
18597;DHT22;9428;50.950;6.912;2024-03-02T01:18:45;9.10;99.90
18597;DHT22;9428;50.950;6.912;2024-03-02T01:21:32;9.00;99.90
18597;DHT22;9428;50.950;6.912;2024-03-02T01:24:21;9.10;99.90
18597;DHT22;9428;50.950;6.912;2024-03-02T01:27:10;9.40;99.90
18597;DHT22;9428;50.950;6.912;2024-03-02T01:29:58;9.00;99.90
18597;DHT22;9428;50.950;6.912;2024-03-02T01:32:45;9.00;99.90
18597;DHT22;9428;50.950;6.912;2024-03-02T01:35:33;9.00;99.90
18597;DHT22;9428;50.950;6.912;2024-03-02T01:38:21;10.00;99.90
18597;DHT22;9428;50.950;6.912;2024-03-02T01:41:10;9.00;99.90
18597;DHT22;9428;50.950;6.912;2024-03-02T01:43:57;9.10;99.90
18597;DHT22;9428;50.950;6.912;2024-03-02T01:46:45;9.00;99.90
18597;DHT22;9428;50.950;6.912;2024-03-02T01:49:32;9.10;99.90
18597;DHT22;9428;50.950;6.912;2024-03-02T01:52:20;9.00;99.90
18597;DHT22;9428;50.950;6.912;2024-03-02T01:55:08;9.10;99.90
18597;DHT22;9428;50.950;6.912;2024-03-02T01:58:00;9.10;99.90
18597;DHT22;9428;50.950;6.912;2024-03-02T02:00:47;9.10;99.90
18597;DHT22;9428;50.950;6.912;2024-03-02T02:03:36;9.00;99.90
18597;DHT22;9428;50.950;6.912;2024-03-02T02:06:24;9.00;99.90
18597;DHT22;9428;50.950;6.912;2024-03-02T02:09:12;9.10;99.90
18597;DHT22;9428;50.950;6.912;2024-03-02T02:11:59;9.10;99.90
18597;DHT22;9428;50.950;6.912;2024-03-02T02:14:49;9.10;99.90
18597;DHT22;9428;50.950;6.912;2024-03-02T02:17:36;9.10;99.90
18597;DHT22;9428;50.950;6.912;2024-03-02T02:20:25;9.10;99.90
18597;DHT22;9428;50.950;6.912;2024-03-02T02:23:14;9.70;99.90
18597;DHT22;9428;50.950;6.912;2024-03-02T02:26:01;9.10;99.90
18597;DHT22;9428;50.950;6.912;2024-03-02T02:28:49;9.10;99.90
18597;DHT22;9428;50.950;6.912;2024-03-02T02:31:37;9.10;99.90
18597;DHT22;9428;50.950;6.912;2024-03-02T02:34:25;9.10;99.90
18597;DHT22;9428;50.950;6.912;2024-03-02T02:37:12;9.50;99.90
18597;DHT22;9428;50.950;6.912;2024-03-02T02:40:04;9.20;99.90
18597;DHT22;9428;50.950;6.912;2024-03-02T02:42:52;9.10;99.90
18597;DHT22;9428;50.950;6.912;2024-03-02T02:45:40;9.30;99.90
18597;DHT22;9428;50.950;6.912;2024-03-02T02:48:27;9.10;99.90
18597;DHT22;9428;50.950;6.912;2024-03-02T02:51:14;9.10;99.90
18597;DHT22;9428;50.950;6.912;2024-03-02T02:54:02;9.10;99.90
18597;DHT22;9428;50.950;6.912;2024-03-02T02:56:52;9.10;99.90
18597;DHT22;9428;50.950;6.912;2024-03-02T02:59:39;9.00;99.90
18597;DHT22;9428;50.950;6.912;2024-03-02T03:02:31;8.20;99.90
18597;DHT22;9428;50.950;6.912;2024-03-02T03:05:18;9.10;99.90
18597;DHT22;9428;50.950;6.912;2024-03-02T03:08:06;9.00;99.90
18597;DHT22;9428;50.950;6.912;2024-03-02T03:10:53;9.10;99.90
18597;DHT22;9428;50.950;6.912;2024-03-02T03:13:42;9.10;99.90
18597;DHT22;9428;50.950;6.912;2024-03-02T03:16:30;9.10;99.90
18597;DHT22;9428;50.950;6.912;2024-03-02T03:19:17;9.10;99.90
18597;DHT22;9428;50.950;6.912;2024-03-02T03:22:07;9.00;99.90
18597;DHT22;9428;50.950;6.912;2024-03-02T03:24:55;9.00;99.90
18597;DHT22;9428;50.950;6.912;2024-03-02T03:27:42;9.00;99.90
18597;DHT22;9428;50.950;6.912;2024-03-02T03:30:31;9.00;99.90
18597;DHT22;9428;50.950;6.912;2024-03-02T03:33:21;9.00;99.90
18597;DHT22;9428;50.950;6.912;2024-03-02T03:36:08;8.70;99.90
18597;DHT22;9428;50.950;6.912;2024-03-02T03:38:56;9.00;99.90
18597;DHT22;9428;50.950;6.912;2024-03-02T03:41:43;8.30;99.90
18597;DHT22;9428;50.950;6.912;2024-03-02T03:44:31;9.00;99.90
18597;DHT22;9428;50.950;6.912;2024-03-02T03:47:20;9.00;99.90
18597;DHT22;9428;50.950;6.912;2024-03-02T03:50:08;9.00;99.90
18597;DHT22;9428;50.950;6.912;2024-03-02T03:52:57;9.00;99.90
18597;DHT22;9428;50.950;6.912;2024-03-02T03:55:44;8.90;99.90
18597;DHT22;9428;50.950;6.912;2024-03-02T03:58:35;8.90;99.90
18597;DHT22;9428;50.950;6.912;2024-03-02T04:01:22;9.00;99.90
18597;DHT22;9428;50.950;6.912;2024-03-02T04:04:11;9.00;99.90
18597;DHT22;9428;50.950;6.912;2024-03-02T04:06:58;9.30;99.90
18597;DHT22;9428;50.950;6.912;2024-03-02T04:09:47;8.90;99.90
18597;DHT22;9428;50.950;6.912;2024-03-02T04:12:36;8.80;99.90
18597;DHT22;9428;50.950;6.912;2024-03-02T04:15:23;8.80;99.90
18597;DHT22;9428;50.950;6.912;2024-03-02T04:18:11;8.80;99.90
18597;DHT22;9428;50.950;6.912;2024-03-02T04:20:59;8.80;99.90
18597;DHT22;9428;50.950;6.912;2024-03-02T04:23:47;8.70;99.90
18597;DHT22;9428;50.950;6.912;2024-03-02T04:26:34;8.80;99.90
18597;DHT22;9428;50.950;6.912;2024-03-02T04:29:21;8.80;99.90
18597;DHT22;9428;50.950;6.912;2024-03-02T04:32:13;9.00;99.90
18597;DHT22;9428;50.950;6.912;2024-03-02T04:35:00;8.80;99.90
18597;DHT22;9428;50.950;6.912;2024-03-02T04:37:49;8.80;99.90
18597;DHT22;9428;50.950;6.912;2024-03-02T04:40:36;8.80;99.90
18597;DHT22;9428;50.950;6.912;2024-03-02T04:43:27;8.80;99.90
18597;DHT22;9428;50.950;6.912;2024-03-02T04:46:14;8.70;99.90
18597;DHT22;9428;50.950;6.912;2024-03-02T04:49:01;8.60;99.90
18597;DHT22;9428;50.950;6.912;2024-03-02T04:51:49;8.60;99.90
18597;DHT22;9428;50.950;6.912;2024-03-02T04:54:37;8.60;99.90
18597;DHT22;9428;50.950;6.912;2024-03-02T04:57:31;8.60;99.90
18597;DHT22;9428;50.950;6.912;2024-03-02T05:00:19;7.60;99.90
18597;DHT22;9428;50.950;6.912;2024-03-02T05:03:06;8.60;99.90
18597;DHT22;9428;50.950;6.912;2024-03-02T05:05:54;8.60;99.90
18597;DHT22;9428;50.950;6.912;2024-03-02T05:08:42;9.30;99.90
18597;DHT22;9428;50.950;6.912;2024-03-02T05:11:30;8.50;99.90
18597;DHT22;9428;50.950;6.912;2024-03-02T05:14:45;8.50;99.90
18597;DHT22;9428;50.950;6.912;2024-03-02T05:17:33;8.50;99.90
18597;DHT22;9428;50.950;6.912;2024-03-02T05:20:20;8.40;99.90
18597;DHT22;9428;50.950;6.912;2024-03-02T05:23:08;8.40;99.90
18597;DHT22;9428;50.950;6.912;2024-03-02T05:25:55;8.50;99.90
18597;DHT22;9428;50.950;6.912;2024-03-02T05:28:42;9.20;99.90
18597;DHT22;9428;50.950;6.912;2024-03-02T05:31:31;8.40;99.90
18597;DHT22;9428;50.950;6.912;2024-03-02T05:34:18;8.40;99.90
18597;DHT22;9428;50.950;6.912;2024-03-02T05:37:06;8.30;99.90
18597;DHT22;9428;50.950;6.912;2024-03-02T05:39:53;8.40;99.90
18597;DHT22;9428;50.950;6.912;2024-03-02T05:42:42;8.40;99.90
18597;DHT22;9428;50.950;6.912;2024-03-02T05:45:30;8.40;99.90
18597;DHT22;9428;50.950;6.912;2024-03-02T05:48:18;8.40;99.90
18597;DHT22;9428;50.950;6.912;2024-03-02T05:51:06;8.40;99.90
18597;DHT22;9428;50.950;6.912;2024-03-02T05:53:53;8.40;99.90
18597;DHT22;9428;50.950;6.912;2024-03-02T05:56:40;8.50;99.90
18597;DHT22;9428;50.950;6.912;2024-03-02T05:59:28;8.30;99.90
18597;DHT22;9428;50.950;6.912;2024-03-02T06:02:15;8.30;99.90
18597;DHT22;9428;50.950;6.912;2024-03-02T06:05:04;8.30;99.90
18597;DHT22;9428;50.950;6.912;2024-03-02T06:07:53;8.30;99.90
18597;DHT22;9428;50.950;6.912;2024-03-02T06:10:40;8.30;99.90
18597;DHT22;9428;50.950;6.912;2024-03-02T06:13:28;8.30;99.90
18597;DHT22;9428;50.950;6.912;2024-03-02T06:16:18;8.20;99.90
18597;DHT22;9428;50.950;6.912;2024-03-02T06:19:05;8.20;99.90
18597;DHT22;9428;50.950;6.912;2024-03-02T06:21:54;8.30;99.90
18597;DHT22;9428;50.950;6.912;2024-03-02T06:24:41;8.20;99.90
18597;DHT22;9428;50.950;6.912;2024-03-02T06:27:29;8.30;99.90
18597;DHT22;9428;50.950;6.912;2024-03-02T06:30:16;8.30;99.90
18597;DHT22;9428;50.950;6.912;2024-03-02T06:33:04;8.40;99.90
18597;DHT22;9428;50.950;6.912;2024-03-02T06:35:52;8.40;99.90
18597;DHT22;9428;50.950;6.912;2024-03-02T06:38:40;8.40;99.90
18597;DHT22;9428;50.950;6.912;2024-03-02T06:41:28;8.40;99.90
18597;DHT22;9428;50.950;6.912;2024-03-02T06:44:15;8.30;99.90
18597;DHT22;9428;50.950;6.912;2024-03-02T06:47:03;8.40;99.90
18597;DHT22;9428;50.950;6.912;2024-03-02T06:49:50;8.40;99.90
18597;DHT22;9428;50.950;6.912;2024-03-02T06:52:39;8.30;99.90
18597;DHT22;9428;50.950;6.912;2024-03-02T06:55:31;8.30;99.90
18597;DHT22;9428;50.950;6.912;2024-03-02T06:58:18;8.40;99.90
18597;DHT22;9428;50.950;6.912;2024-03-02T07:01:05;8.30;99.90
18597;DHT22;9428;50.950;6.912;2024-03-02T07:03:53;8.50;99.90
18597;DHT22;9428;50.950;6.912;2024-03-02T07:06:40;8.50;99.90
18597;DHT22;9428;50.950;6.912;2024-03-02T07:09:27;8.50;99.90
18597;DHT22;9428;50.950;6.912;2024-03-02T07:12:16;8.50;99.90
18597;DHT22;9428;50.950;6.912;2024-03-02T07:15:04;8.60;99.90
18597;DHT22;9428;50.950;6.912;2024-03-02T07:18:11;8.60;99.90
18597;DHT22;9428;50.950;6.912;2024-03-02T07:20:58;8.60;99.90
18597;DHT22;9428;50.950;6.912;2024-03-02T07:23:47;8.70;99.90
18597;DHT22;9428;50.950;6.912;2024-03-02T07:26:34;8.70;99.90
18597;DHT22;9428;50.950;6.912;2024-03-02T07:29:23;8.70;99.90
18597;DHT22;9428;50.950;6.912;2024-03-02T07:32:10;8.80;99.90
18597;DHT22;9428;50.950;6.912;2024-03-02T07:34:58;8.80;99.90
18597;DHT22;9428;50.950;6.912;2024-03-02T07:37:47;8.80;99.90
18597;DHT22;9428;50.950;6.912;2024-03-02T07:40:34;8.80;99.90
18597;DHT22;9428;50.950;6.912;2024-03-02T07:43:21;8.70;99.90
18597;DHT22;9428;50.950;6.912;2024-03-02T07:46:10;8.10;99.90
18597;DHT22;9428;50.950;6.912;2024-03-02T07:48:58;8.90;99.90
18597;DHT22;9428;50.950;6.912;2024-03-02T07:51:45;8.90;99.90
18597;DHT22;9428;50.950;6.912;2024-03-02T07:54:32;8.90;99.90
18597;DHT22;9428;50.950;6.912;2024-03-02T07:57:20;9.00;99.90
18597;DHT22;9428;50.950;6.912;2024-03-02T08:00:08;8.90;99.90
18597;DHT22;9428;50.950;6.912;2024-03-02T08:02:57;8.90;99.90
18597;DHT22;9428;50.950;6.912;2024-03-02T08:05:45;9.00;99.90
18597;DHT22;9428;50.950;6.912;2024-03-02T08:08:32;9.40;99.90
18597;DHT22;9428;50.950;6.912;2024-03-02T08:11:20;9.60;99.90
18597;DHT22;9428;50.950;6.912;2024-03-02T08:14:07;9.00;99.90
18597;DHT22;9428;50.950;6.912;2024-03-02T08:16:55;8.50;99.90
18597;DHT22;9428;50.950;6.912;2024-03-02T08:19:43;9.10;99.90
18597;DHT22;9428;50.950;6.912;2024-03-02T08:22:31;9.20;99.90
18597;DHT22;9428;50.950;6.912;2024-03-02T08:25:18;9.30;99.90
18597;DHT22;9428;50.950;6.912;2024-03-02T08:28:06;9.40;99.90
18597;DHT22;9428;50.950;6.912;2024-03-02T08:30:53;9.50;99.90
18597;DHT22;9428;50.950;6.912;2024-03-02T08:33:40;10.10;99.90
18597;DHT22;9428;50.950;6.912;2024-03-02T08:36:32;9.70;99.90
18597;DHT22;9428;50.950;6.912;2024-03-02T08:39:20;9.70;99.90
18597;DHT22;9428;50.950;6.912;2024-03-02T08:42:07;9.80;99.90
18597;DHT22;9428;50.950;6.912;2024-03-02T08:44:57;9.80;99.90
18597;DHT22;9428;50.950;6.912;2024-03-02T08:47:47;9.80;99.90
18597;DHT22;9428;50.950;6.912;2024-03-02T08:50:34;9.80;99.90
18597;DHT22;9428;50.950;6.912;2024-03-02T08:53:23;9.80;99.90
18597;DHT22;9428;50.950;6.912;2024-03-02T08:56:10;9.70;99.90
18597;DHT22;9428;50.950;6.912;2024-03-02T08:58:59;9.80;99.90
18597;DHT22;9428;50.950;6.912;2024-03-02T09:01:46;9.10;99.90
18597;DHT22;9428;50.950;6.912;2024-03-02T09:04:36;9.80;99.90
18597;DHT22;9428;50.950;6.912;2024-03-02T09:07:26;9.80;99.90
18597;DHT22;9428;50.950;6.912;2024-03-02T09:10:16;9.90;99.90
18597;DHT22;9428;50.950;6.912;2024-03-02T09:13:04;9.40;99.90
18597;DHT22;9428;50.950;6.912;2024-03-02T09:15:51;10.10;99.90
18597;DHT22;9428;50.950;6.912;2024-03-02T09:18:38;10.00;99.90
18597;DHT22;9428;50.950;6.912;2024-03-02T09:21:31;10.00;99.90
18597;DHT22;9428;50.950;6.912;2024-03-02T09:24:18;10.00;99.90
18597;DHT22;9428;50.950;6.912;2024-03-02T09:27:07;10.10;99.90
18597;DHT22;9428;50.950;6.912;2024-03-02T09:29:57;10.00;99.90
18597;DHT22;9428;50.950;6.912;2024-03-02T09:32:44;10.10;99.90
18597;DHT22;9428;50.950;6.912;2024-03-02T09:35:32;10.20;99.90
18597;DHT22;9428;50.950;6.912;2024-03-02T09:38:19;10.20;99.90
18597;DHT22;9428;50.950;6.912;2024-03-02T09:41:08;10.20;99.90
18597;DHT22;9428;50.950;6.912;2024-03-02T09:43:57;10.30;99.90
18597;DHT22;9428;50.950;6.912;2024-03-02T09:46:48;10.30;99.90
18597;DHT22;9428;50.950;6.912;2024-03-02T09:49:38;10.30;99.90
18597;DHT22;9428;50.950;6.912;2024-03-02T09:52:26;10.40;99.90
18597;DHT22;9428;50.950;6.912;2024-03-02T09:55:17;10.30;99.90
18597;DHT22;9428;50.950;6.912;2024-03-02T09:58:05;10.50;99.90
18597;DHT22;9428;50.950;6.912;2024-03-02T10:00:54;11.10;99.90
18597;DHT22;9428;50.950;6.912;2024-03-02T10:03:44;10.40;99.90
18597;DHT22;9428;50.950;6.912;2024-03-02T10:06:36;10.50;99.90
18597;DHT22;9428;50.950;6.912;2024-03-02T10:09:27;10.50;99.90
18597;DHT22;9428;50.950;6.912;2024-03-02T10:12:16;10.40;99.90
18597;DHT22;9428;50.950;6.912;2024-03-02T10:15:05;10.60;99.90
18597;DHT22;9428;50.950;6.912;2024-03-02T10:17:58;10.60;99.90
18597;DHT22;9428;50.950;6.912;2024-03-02T10:20:45;10.70;99.90
18597;DHT22;9428;50.950;6.912;2024-03-02T10:23:34;10.80;99.90
18597;DHT22;9428;50.950;6.912;2024-03-02T10:26:22;10.80;99.90
18597;DHT22;9428;50.950;6.912;2024-03-02T10:29:12;10.70;99.90
18597;DHT22;9428;50.950;6.912;2024-03-02T10:32:03;10.80;99.90
18597;DHT22;9428;50.950;6.912;2024-03-02T10:34:54;10.70;99.90
18597;DHT22;9428;50.950;6.912;2024-03-02T10:37:43;10.80;99.90
18597;DHT22;9428;50.950;6.912;2024-03-02T10:40:31;10.90;99.90
18597;DHT22;9428;50.950;6.912;2024-03-02T10:43:20;10.90;99.90
18597;DHT22;9428;50.950;6.912;2024-03-02T10:46:14;11.00;99.90
18597;DHT22;9428;50.950;6.912;2024-03-02T10:49:05;11.10;99.90
18597;DHT22;9428;50.950;6.912;2024-03-02T10:51:59;11.10;99.90
18597;DHT22;9428;50.950;6.912;2024-03-02T10:54:50;11.50;99.90
18597;DHT22;9428;50.950;6.912;2024-03-02T10:57:45;11.80;99.90
18597;DHT22;9428;50.950;6.912;2024-03-02T11:00:38;11.40;99.90
18597;DHT22;9428;50.950;6.912;2024-03-02T11:03:26;11.30;99.90
18597;DHT22;9428;50.950;6.912;2024-03-02T11:06:14;11.40;99.90
18597;DHT22;9428;50.950;6.912;2024-03-02T11:09:09;11.40;99.90
18597;DHT22;9428;50.950;6.912;2024-03-02T11:12:02;11.40;99.90
18597;DHT22;9428;50.950;6.912;2024-03-02T11:14:51;11.50;99.90
18597;DHT22;9428;50.950;6.912;2024-03-02T11:17:39;11.60;99.90
18597;DHT22;9428;50.950;6.912;2024-03-02T11:20:27;11.60;99.90
18597;DHT22;9428;50.950;6.912;2024-03-02T11:23:15;11.90;99.90
18597;DHT22;9428;50.950;6.912;2024-03-02T11:26:19;11.80;99.90
18597;DHT22;9428;50.950;6.912;2024-03-02T11:29:07;11.80;99.90
18597;DHT22;9428;50.950;6.912;2024-03-02T11:31:58;11.80;99.90
18597;DHT22;9428;50.950;6.912;2024-03-02T11:34:47;11.70;99.90
18597;DHT22;9428;50.950;6.912;2024-03-02T11:37:35;11.70;99.90
18597;DHT22;9428;50.950;6.912;2024-03-02T11:40:22;11.80;99.90
18597;DHT22;9428;50.950;6.912;2024-03-02T11:43:12;11.90;99.90
18597;DHT22;9428;50.950;6.912;2024-03-02T11:46:00;11.90;99.90
18597;DHT22;9428;50.950;6.912;2024-03-02T11:48:50;12.00;99.90
18597;DHT22;9428;50.950;6.912;2024-03-02T11:51:50;11.90;99.90
18597;DHT22;9428;50.950;6.912;2024-03-02T11:54:47;11.90;99.90
18597;DHT22;9428;50.950;6.912;2024-03-02T11:57:37;11.90;99.90
18597;DHT22;9428;50.950;6.912;2024-03-02T12:00:26;12.00;99.90
18597;DHT22;9428;50.950;6.912;2024-03-02T12:03:18;12.10;99.90
18597;DHT22;9428;50.950;6.912;2024-03-02T12:06:11;12.00;99.90
18597;DHT22;9428;50.950;6.912;2024-03-02T12:09:03;12.00;99.90
18597;DHT22;9428;50.950;6.912;2024-03-02T12:12:04;12.60;99.90
18597;DHT22;9428;50.950;6.912;2024-03-02T12:14:55;12.20;99.90
18597;DHT22;9428;50.950;6.912;2024-03-02T12:17:44;12.40;99.90
18597;DHT22;9428;50.950;6.912;2024-03-02T12:20:34;12.40;99.90
18597;DHT22;9428;50.950;6.912;2024-03-02T12:23:22;12.30;99.90
18597;DHT22;9428;50.950;6.912;2024-03-02T12:26:09;12.50;99.90
18597;DHT22;9428;50.950;6.912;2024-03-02T12:28:58;12.50;99.90
18597;DHT22;9428;50.950;6.912;2024-03-02T12:31:45;12.50;99.90
18597;DHT22;9428;50.950;6.912;2024-03-02T12:34:38;12.60;99.90
18597;DHT22;9428;50.950;6.912;2024-03-02T12:37:25;12.60;99.90
18597;DHT22;9428;50.950;6.912;2024-03-02T12:40:14;12.60;99.90
18597;DHT22;9428;50.950;6.912;2024-03-02T12:43:05;12.60;99.90
18597;DHT22;9428;50.950;6.912;2024-03-02T12:45:53;12.70;99.90
18597;DHT22;9428;50.950;6.912;2024-03-02T12:48:42;12.70;99.90
18597;DHT22;9428;50.950;6.912;2024-03-02T12:51:33;12.80;99.90
18597;DHT22;9428;50.950;6.912;2024-03-02T12:54:22;12.80;99.90
18597;DHT22;9428;50.950;6.912;2024-03-02T12:57:10;12.70;99.90
18597;DHT22;9428;50.950;6.912;2024-03-02T13:00:05;12.90;99.90
18597;DHT22;9428;50.950;6.912;2024-03-02T13:02:56;12.80;99.90
18597;DHT22;9428;50.950;6.912;2024-03-02T13:05:51;12.90;99.90
18597;DHT22;9428;50.950;6.912;2024-03-02T13:08:40;12.90;99.90
18597;DHT22;9428;50.950;6.912;2024-03-02T13:11:30;13.00;99.90
18597;DHT22;9428;50.950;6.912;2024-03-02T13:14:18;13.00;99.90
18597;DHT22;9428;50.950;6.912;2024-03-02T13:17:05;13.00;99.90
18597;DHT22;9428;50.950;6.912;2024-03-02T13:19:55;13.00;99.90
18597;DHT22;9428;50.950;6.912;2024-03-02T13:22:43;13.60;99.90
18597;DHT22;9428;50.950;6.912;2024-03-02T13:25:35;12.90;99.90
18597;DHT22;9428;50.950;6.912;2024-03-02T13:28:22;12.90;99.90
18597;DHT22;9428;50.950;6.912;2024-03-02T13:31:10;12.80;99.90
18597;DHT22;9428;50.950;6.912;2024-03-02T13:34:00;12.80;99.90
18597;DHT22;9428;50.950;6.912;2024-03-02T13:36:47;12.70;99.90
18597;DHT22;9428;50.950;6.912;2024-03-02T13:39:37;12.70;99.90
18597;DHT22;9428;50.950;6.912;2024-03-02T13:42:28;12.80;99.90
18597;DHT22;9428;50.950;6.912;2024-03-02T13:45:16;12.80;99.90
18597;DHT22;9428;50.950;6.912;2024-03-02T13:48:06;12.70;99.90
18597;DHT22;9428;50.950;6.912;2024-03-02T13:50:54;13.10;99.90
18597;DHT22;9428;50.950;6.912;2024-03-02T13:53:46;13.20;99.90
18597;DHT22;9428;50.950;6.912;2024-03-02T13:56:33;13.20;99.90
18597;DHT22;9428;50.950;6.912;2024-03-02T13:59:22;13.10;99.90
18597;DHT22;9428;50.950;6.912;2024-03-02T14:02:12;13.20;99.90
18597;DHT22;9428;50.950;6.912;2024-03-02T14:04:59;13.20;99.90
18597;DHT22;9428;50.950;6.912;2024-03-02T14:07:46;13.10;99.90
18597;DHT22;9428;50.950;6.912;2024-03-02T14:10:34;13.20;99.90
18597;DHT22;9428;50.950;6.912;2024-03-02T14:13:21;13.20;99.90
18597;DHT22;9428;50.950;6.912;2024-03-02T14:16:10;13.20;99.90
18597;DHT22;9428;50.950;6.912;2024-03-02T14:18:59;13.20;99.90
18597;DHT22;9428;50.950;6.912;2024-03-02T14:21:47;13.20;99.90
18597;DHT22;9428;50.950;6.912;2024-03-02T14:24:34;13.10;99.90
18597;DHT22;9428;50.950;6.912;2024-03-02T14:27:21;13.20;99.90
18597;DHT22;9428;50.950;6.912;2024-03-02T14:30:10;13.40;99.90
18597;DHT22;9428;50.950;6.912;2024-03-02T14:32:59;13.50;99.90
18597;DHT22;9428;50.950;6.912;2024-03-02T14:35:46;13.40;99.90
18597;DHT22;9428;50.950;6.912;2024-03-02T14:38:34;13.30;99.90
18597;DHT22;9428;50.950;6.912;2024-03-02T14:41:21;13.30;99.90
18597;DHT22;9428;50.950;6.912;2024-03-02T14:44:10;13.30;99.90
18597;DHT22;9428;50.950;6.912;2024-03-02T14:46:58;13.30;99.90
18597;DHT22;9428;50.950;6.912;2024-03-02T14:49:46;13.20;99.90
18597;DHT22;9428;50.950;6.912;2024-03-02T14:52:34;13.20;99.90
18597;DHT22;9428;50.950;6.912;2024-03-02T14:55:21;13.20;99.90
18597;DHT22;9428;50.950;6.912;2024-03-02T14:58:09;13.30;99.90
18597;DHT22;9428;50.950;6.912;2024-03-02T15:00:57;13.20;99.90
18597;DHT22;9428;50.950;6.912;2024-03-02T15:03:46;13.20;99.90
18597;DHT22;9428;50.950;6.912;2024-03-02T15:06:36;13.20;99.90
18597;DHT22;9428;50.950;6.912;2024-03-02T15:09:23;13.20;99.90
18597;DHT22;9428;50.950;6.912;2024-03-02T15:12:11;13.20;99.90
18597;DHT22;9428;50.950;6.912;2024-03-02T15:15:00;13.10;99.90
18597;DHT22;9428;50.950;6.912;2024-03-02T15:17:48;13.20;99.90
18597;DHT22;9428;50.950;6.912;2024-03-02T15:20:36;13.20;99.90
18597;DHT22;9428;50.950;6.912;2024-03-02T15:23:25;13.20;99.90
18597;DHT22;9428;50.950;6.912;2024-03-02T15:26:12;13.20;99.90
18597;DHT22;9428;50.950;6.912;2024-03-02T15:28:59;13.20;99.90
18597;DHT22;9428;50.950;6.912;2024-03-02T15:31:47;13.20;99.90
18597;DHT22;9428;50.950;6.912;2024-03-02T15:34:35;13.20;99.90
18597;DHT22;9428;50.950;6.912;2024-03-02T15:37:22;13.20;99.90
18597;DHT22;9428;50.950;6.912;2024-03-02T15:40:11;13.20;99.90
18597;DHT22;9428;50.950;6.912;2024-03-02T15:43:02;13.10;99.90
18597;DHT22;9428;50.950;6.912;2024-03-02T15:45:50;13.30;99.90
18597;DHT22;9428;50.950;6.912;2024-03-02T15:48:37;13.20;99.90
18597;DHT22;9428;50.950;6.912;2024-03-02T15:51:25;13.10;99.90
18597;DHT22;9428;50.950;6.912;2024-03-02T15:54:12;13.50;99.90
18597;DHT22;9428;50.950;6.912;2024-03-02T15:57:01;13.10;99.90
18597;DHT22;9428;50.950;6.912;2024-03-02T15:59:51;13.20;99.90
18597;DHT22;9428;50.950;6.912;2024-03-02T16:02:38;13.10;99.90
18597;DHT22;9428;50.950;6.912;2024-03-02T16:05:28;13.10;99.90
18597;DHT22;9428;50.950;6.912;2024-03-02T16:08:16;13.10;99.90
18597;DHT22;9428;50.950;6.912;2024-03-02T16:11:03;13.00;99.90
18597;DHT22;9428;50.950;6.912;2024-03-02T16:13:52;13.00;99.90
18597;DHT22;9428;50.950;6.912;2024-03-02T16:16:40;13.90;99.90
18597;DHT22;9428;50.950;6.912;2024-03-02T16:19:30;13.10;99.90
18597;DHT22;9428;50.950;6.912;2024-03-02T16:22:17;13.10;99.90
18597;DHT22;9428;50.950;6.912;2024-03-02T16:25:06;13.10;99.90
18597;DHT22;9428;50.950;6.912;2024-03-02T16:27:53;13.00;99.90
18597;DHT22;9428;50.950;6.912;2024-03-02T16:30:42;13.10;99.90
18597;DHT22;9428;50.950;6.912;2024-03-02T16:33:29;13.20;99.90
18597;DHT22;9428;50.950;6.912;2024-03-02T16:36:17;13.10;99.90
18597;DHT22;9428;50.950;6.912;2024-03-02T16:39:05;13.50;99.90
18597;DHT22;9428;50.950;6.912;2024-03-02T16:41:54;13.40;99.90
18597;DHT22;9428;50.950;6.912;2024-03-02T16:44:42;13.00;99.90
18597;DHT22;9428;50.950;6.912;2024-03-02T16:47:33;13.00;99.90
18597;DHT22;9428;50.950;6.912;2024-03-02T16:50:20;12.90;99.90
18597;DHT22;9428;50.950;6.912;2024-03-02T16:53:08;12.90;99.90
18597;DHT22;9428;50.950;6.912;2024-03-02T16:55:59;12.90;99.90
18597;DHT22;9428;50.950;6.912;2024-03-02T16:58:46;12.90;99.90
18597;DHT22;9428;50.950;6.912;2024-03-02T17:01:33;13.10;99.90
18597;DHT22;9428;50.950;6.912;2024-03-02T17:04:22;12.80;99.90
18597;DHT22;9428;50.950;6.912;2024-03-02T17:07:10;12.90;99.90
18597;DHT22;9428;50.950;6.912;2024-03-02T17:10:00;12.80;99.90
18597;DHT22;9428;50.950;6.912;2024-03-02T17:12:48;12.80;99.90
18597;DHT22;9428;50.950;6.912;2024-03-02T17:15:35;12.90;99.90
18597;DHT22;9428;50.950;6.912;2024-03-02T17:18:22;12.80;99.90
18597;DHT22;9428;50.950;6.912;2024-03-02T17:21:14;12.90;99.90
18597;DHT22;9428;50.950;6.912;2024-03-02T17:24:01;12.90;99.90
18597;DHT22;9428;50.950;6.912;2024-03-02T17:26:49;12.80;99.90
18597;DHT22;9428;50.950;6.912;2024-03-02T17:29:38;12.70;99.90
18597;DHT22;9428;50.950;6.912;2024-03-02T17:32:26;12.70;99.90
18597;DHT22;9428;50.950;6.912;2024-03-02T17:35:14;12.90;99.90
18597;DHT22;9428;50.950;6.912;2024-03-02T17:38:03;12.70;99.90
18597;DHT22;9428;50.950;6.912;2024-03-02T17:40:51;12.70;99.90
18597;DHT22;9428;50.950;6.912;2024-03-02T17:43:38;12.70;99.90
18597;DHT22;9428;50.950;6.912;2024-03-02T17:46:26;12.70;99.90
18597;DHT22;9428;50.950;6.912;2024-03-02T17:49:13;12.70;99.90
18597;DHT22;9428;50.950;6.912;2024-03-02T17:52:01;13.30;99.90
18597;DHT22;9428;50.950;6.912;2024-03-02T17:54:50;12.70;99.90
18597;DHT22;9428;50.950;6.912;2024-03-02T17:57:37;12.70;99.90
18597;DHT22;9428;50.950;6.912;2024-03-02T18:00:28;12.70;99.90
18597;DHT22;9428;50.950;6.912;2024-03-02T18:03:15;12.70;99.90
18597;DHT22;9428;50.950;6.912;2024-03-02T18:06:03;12.70;99.90
18597;DHT22;9428;50.950;6.912;2024-03-02T18:08:52;12.70;99.90
18597;DHT22;9428;50.950;6.912;2024-03-02T18:11:41;12.70;99.90
18597;DHT22;9428;50.950;6.912;2024-03-02T18:14:34;12.70;99.90